sensor_id;sensor_type;location;lat;lon;timestamp;pressure;altitude;pressure_sealevel;temperature;humidity
26859;BME280;14429;48.346;16.338;2022-10-22T00:02:06;99729.59;;;17.97;49.70
26859;BME280;14429;48.346;16.338;2022-10-22T00:04:31;99740.22;;;17.72;49.93
26859;BME280;14429;48.346;16.338;2022-10-22T00:06:58;99732.59;;;17.03;46.38
26859;BME280;14429;48.346;16.338;2022-10-22T00:09:23;99733.59;;;17.21;50.96
26859;BME280;14429;48.346;16.338;2022-10-22T00:11:49;99739.69;;;17.14;46.60
26859;BME280;14429;48.346;16.338;2022-10-22T00:14:15;99738.16;;;16.55;48.91
26859;BME280;14429;48.346;16.338;2022-10-22T00:16:40;99727.38;;;16.74;51.69
26859;BME280;14429;48.346;16.338;2022-10-22T00:19:06;99725.72;;;17.37;50.83
26859;BME280;14429;48.346;16.338;2022-10-22T00:21:31;99724.94;;;17.53;50.67
26859;BME280;14429;48.346;16.338;2022-10-22T00:23:58;99716.84;;;17.53;50.30
26859;BME280;14429;48.346;16.338;2022-10-22T00:26:24;99720.13;;;17.02;48.94
26859;BME280;14429;48.346;16.338;2022-10-22T00:28:49;99714.78;;;17.48;50.64
26859;BME280;14429;48.346;16.338;2022-10-22T00:31:14;99712.88;;;17.57;50.61
26859;BME280;14429;48.346;16.338;2022-10-22T00:33:40;99706.56;;;17.40;48.59
26859;BME280;14429;48.346;16.338;2022-10-22T00:36:06;99703.09;;;17.83;49.82
26859;BME280;14429;48.346;16.338;2022-10-22T00:38:32;99699.53;;;17.56;48.72
26859;BME280;14429;48.346;16.338;2022-10-22T00:40:59;99701.50;;;17.90;49.82
26859;BME280;14429;48.346;16.338;2022-10-22T00:43:25;99700.91;;;17.43;46.02
26859;BME280;14429;48.346;16.338;2022-10-22T00:45:51;99693.03;;;17.85;49.85
26859;BME280;14429;48.346;16.338;2022-10-22T00:48:18;99684.91;;;17.85;49.88
26859;BME280;14429;48.346;16.338;2022-10-22T00:50:48;99678.03;;;17.47;48.51
26859;BME280;14429;48.346;16.338;2022-10-22T00:53:17;99671.91;;;17.45;49.51
26859;BME280;14429;48.346;16.338;2022-10-22T00:55:45;99683.41;;;16.83;48.92
26859;BME280;14429;48.346;16.338;2022-10-22T00:58:14;99680.28;;;16.97;51.16
26859;BME280;14429;48.346;16.338;2022-10-22T01:00:40;99681.75;;;16.26;47.53
26859;BME280;14429;48.346;16.338;2022-10-22T01:03:07;99684.56;;;16.80;51.93
26859;BME280;14429;48.346;16.338;2022-10-22T01:05:42;99686.06;;;17.01;51.70
26859;BME280;14429;48.346;16.338;2022-10-22T01:08:12;99680.59;;;17.39;50.98
26859;BME280;14429;48.346;16.338;2022-10-22T01:10:45;99679.69;;;17.12;51.32
26859;BME280;14429;48.346;16.338;2022-10-22T01:13:23;99685.25;;;17.46;50.90
26859;BME280;14429;48.346;16.338;2022-10-22T01:15:58;99684.72;;;17.69;50.27
26859;BME280;14429;48.346;16.338;2022-10-22T01:18:33;99695.63;;;17.77;50.07
26859;BME280;14429;48.346;16.338;2022-10-22T01:21:07;99696.59;;;17.50;48.73
26859;BME280;14429;48.346;16.338;2022-10-22T01:23:53;99672.25;;;16.59;47.70
26859;BME280;14429;48.346;16.338;2022-10-22T01:26:29;99673.13;;;17.24;51.19
26859;BME280;14429;48.346;16.338;2022-10-22T01:29:01;99666.13;;;16.95;48.20
26859;BME280;14429;48.346;16.338;2022-10-22T01:31:34;99661.28;;;16.89;46.43
26859;BME280;14429;48.346;16.338;2022-10-22T01:34:03;99661.06;;;17.27;47.08
26859;BME280;14429;48.346;16.338;2022-10-22T01:36:32;99666.63;;;17.53;50.56
26859;BME280;14429;48.346;16.338;2022-10-22T01:38:59;99667.84;;;17.67;50.31
26859;BME280;14429;48.346;16.338;2022-10-22T01:41:26;99666.66;;;17.07;50.40
26859;BME280;14429;48.346;16.338;2022-10-22T01:43:52;99657.03;;;16.96;50.95
26859;BME280;14429;48.346;16.338;2022-10-22T01:46:20;99653.94;;;17.36;51.04
26859;BME280;14429;48.346;16.338;2022-10-22T01:48:55;99657.97;;;17.58;50.52
26859;BME280;14429;48.346;16.338;2022-10-22T01:51:46;99646.75;;;16.63;47.02
26859;BME280;14429;48.346;16.338;2022-10-22T01:54:24;99641.53;;;16.34;48.48
26859;BME280;14429;48.346;16.338;2022-10-22T01:56:59;99636.03;;;17.08;51.81
26859;BME280;14429;48.346;16.338;2022-10-22T01:59:35;99634.44;;;17.51;50.84
26859;BME280;14429;48.346;16.338;2022-10-22T02:02:12;99633.06;;;17.64;50.31
26859;BME280;14429;48.346;16.338;2022-10-22T02:04:47;99631.47;;;17.71;50.12
26859;BME280;14429;48.346;16.338;2022-10-22T02:07:17;99625.78;;;17.74;50.03
26859;BME280;14429;48.346;16.338;2022-10-22T02:09:44;99628.56;;;17.82;49.77
26859;BME280;14429;48.346;16.338;2022-10-22T02:12:12;99629.44;;;17.56;49.02
26859;BME280;14429;48.346;16.338;2022-10-22T02:14:40;99619.91;;;17.61;49.92
26859;BME280;14429;48.346;16.338;2022-10-22T02:17:11;99621.34;;;16.84;48.56
26859;BME280;14429;48.346;16.338;2022-10-22T02:19:41;99625.78;;;17.48;50.66
26859;BME280;14429;48.346;16.338;2022-10-22T02:22:10;99627.66;;;17.64;50.25
26859;BME280;14429;48.346;16.338;2022-10-22T02:24:36;99632.19;;;17.73;50.06
26859;BME280;14429;48.346;16.338;2022-10-22T02:27:07;99645.88;;;17.80;49.95
26859;BME280;14429;48.346;16.338;2022-10-22T02:29:38;99646.75;;;17.80;49.88
26859;BME280;14429;48.346;16.338;2022-10-22T02:32:06;99633.69;;;17.76;49.92
26859;BME280;14429;48.346;16.338;2022-10-22T02:34:34;99625.38;;;16.98;45.95
26859;BME280;14429;48.346;16.338;2022-10-22T02:37:01;99610.00;;;16.81;51.22
26859;BME280;14429;48.346;16.338;2022-10-22T02:39:28;99622.28;;;17.38;51.00
26859;BME280;14429;48.346;16.338;2022-10-22T02:41:55;99621.50;;;17.54;50.51
26859;BME280;14429;48.346;16.338;2022-10-22T02:44:21;99623.94;;;17.48;50.34
26859;BME280;14429;48.346;16.338;2022-10-22T02:46:47;99623.09;;;17.48;50.48
26859;BME280;14429;48.346;16.338;2022-10-22T02:49:13;99630.06;;;17.67;50.11
26859;BME280;14429;48.346;16.338;2022-10-22T02:51:40;99629.22;;;17.67;50.10
26859;BME280;14429;48.346;16.338;2022-10-22T02:54:05;99620.28;;;17.66;49.96
26859;BME280;14429;48.346;16.338;2022-10-22T02:56:31;99612.97;;;17.76;49.89
26859;BME280;14429;48.346;16.338;2022-10-22T02:58:56;99626.31;;;17.78;49.88
26859;BME280;14429;48.346;16.338;2022-10-22T03:01:22;99637.38;;;17.84;49.60
26859;BME280;14429;48.346;16.338;2022-10-22T03:03:47;99639.59;;;17.88;49.49
26859;BME280;14429;48.346;16.338;2022-10-22T03:06:13;99637.75;;;17.89;49.47
26859;BME280;14429;48.346;16.338;2022-10-22T03:08:40;99631.63;;;17.87;49.48
26859;BME280;14429;48.346;16.338;2022-10-22T03:11:06;99632.72;;;17.94;49.28
26859;BME280;14429;48.346;16.338;2022-10-22T03:13:31;99642.13;;;17.90;49.33
26859;BME280;14429;48.346;16.338;2022-10-22T03:15:57;99634.81;;;17.82;49.56
26859;BME280;14429;48.346;16.338;2022-10-22T03:18:22;99632.53;;;17.87;49.42
26859;BME280;14429;48.346;16.338;2022-10-22T03:20:48;99633.88;;;17.74;49.47
26859;BME280;14429;48.346;16.338;2022-10-22T03:23:16;99619.63;;;16.83;46.29
26859;BME280;14429;48.346;16.338;2022-10-22T03:25:47;99621.59;;;17.36;50.80
26859;BME280;14429;48.346;16.338;2022-10-22T03:28:14;99618.81;;;17.54;50.29
26859;BME280;14429;48.346;16.338;2022-10-22T03:30:41;99607.09;;;17.63;50.09
26859;BME280;14429;48.346;16.338;2022-10-22T03:33:06;99604.19;;;17.74;49.87
26859;BME280;14429;48.346;16.338;2022-10-22T03:35:34;99608.66;;;17.83;49.71
26859;BME280;14429;48.346;16.338;2022-10-22T03:38:01;99613.09;;;17.84;49.56
26859;BME280;14429;48.346;16.338;2022-10-22T03:40:27;99610.75;;;17.89;49.43
26859;BME280;14429;48.346;16.338;2022-10-22T03:42:54;99619.63;;;17.81;49.66
26859;BME280;14429;48.346;16.338;2022-10-22T03:45:20;99622.28;;;17.38;44.88
26859;BME280;14429;48.346;16.338;2022-10-22T03:47:45;99626.22;;;16.44;49.89
26859;BME280;14429;48.346;16.338;2022-10-22T03:50:10;99617.88;;;16.46;52.32
26859;BME280;14429;48.346;16.338;2022-10-22T03:52:37;99602.69;;;16.45;50.27
26859;BME280;14429;48.346;16.338;2022-10-22T03:55:03;99588.72;;;16.78;52.11
26859;BME280;14429;48.346;16.338;2022-10-22T03:57:29;99585.81;;;17.07;51.54
26859;BME280;14429;48.346;16.338;2022-10-22T03:59:55;99593.94;;;17.34;50.98
26859;BME280;14429;48.346;16.338;2022-10-22T04:02:21;99598.09;;;17.28;50.77
26859;BME280;14429;48.346;16.338;2022-10-22T04:04:46;99602.84;;;17.08;50.99
26859;BME280;14429;48.346;16.338;2022-10-22T04:07:12;99602.72;;;17.36;50.95
26859;BME280;14429;48.346;16.338;2022-10-22T04:09:37;99609.16;;;17.52;50.35
26859;BME280;14429;48.346;16.338;2022-10-22T04:12:03;99616.50;;;17.59;50.31
26859;BME280;14429;48.346;16.338;2022-10-22T04:14:29;99627.28;;;17.59;50.06
26859;BME280;14429;48.346;16.338;2022-10-22T04:16:55;99639.56;;;17.71;49.91
26859;BME280;14429;48.346;16.338;2022-10-22T04:19:21;99637.41;;;17.75;49.76
26859;BME280;14429;48.346;16.338;2022-10-22T04:21:46;99633.88;;;17.74;49.72
26859;BME280;14429;48.346;16.338;2022-10-22T04:24:11;99630.56;;;17.80;49.71
26859;BME280;14429;48.346;16.338;2022-10-22T04:26:37;99625.78;;;17.74;49.64
26859;BME280;14429;48.346;16.338;2022-10-22T04:29:02;99617.97;;;17.71;49.70
26859;BME280;14429;48.346;16.338;2022-10-22T04:31:28;99615.09;;;17.55;49.36
26859;BME280;14429;48.346;16.338;2022-10-22T04:33:56;99612.19;;;17.13;49.61
26859;BME280;14429;48.346;16.338;2022-10-22T04:36:22;99617.09;;;17.53;50.33
26859;BME280;14429;48.346;16.338;2022-10-22T04:38:52;99616.50;;;17.59;50.00
26859;BME280;14429;48.346;16.338;2022-10-22T04:41:20;99613.75;;;17.69;49.76
26859;BME280;14429;48.346;16.338;2022-10-22T04:43:46;99629.06;;;17.42;46.87
26859;BME280;14429;48.346;16.338;2022-10-22T04:46:14;99623.53;;;17.70;49.82
26859;BME280;14429;48.346;16.338;2022-10-22T04:48:41;99630.31;;;17.74;49.60
26859;BME280;14429;48.346;16.338;2022-10-22T04:51:11;99626.88;;;17.81;49.53
26859;BME280;14429;48.346;16.338;2022-10-22T04:53:37;99618.06;;;17.79;49.47
26859;BME280;14429;48.346;16.338;2022-10-22T04:56:07;99619.66;;;17.72;48.75
26859;BME280;14429;48.346;16.338;2022-10-22T04:58:32;99616.97;;;17.72;49.67
26859;BME280;14429;48.346;16.338;2022-10-22T05:00:57;99603.91;;;17.77;49.62
26859;BME280;14429;48.346;16.338;2022-10-22T05:03:23;99607.13;;;17.81;49.52
26859;BME280;14429;48.346;16.338;2022-10-22T05:05:49;99618.78;;;17.81;49.39
26859;BME280;14429;48.346;16.338;2022-10-22T05:08:15;99616.75;;;17.83;49.36
26859;BME280;14429;48.346;16.338;2022-10-22T05:10:41;99624.16;;;17.81;49.39
26859;BME280;14429;48.346;16.338;2022-10-22T05:13:06;99631.63;;;17.87;49.32
26859;BME280;14429;48.346;16.338;2022-10-22T05:15:32;99622.03;;;17.84;49.27
26859;BME280;14429;48.346;16.338;2022-10-22T05:17:57;99629.69;;;17.80;49.44
26859;BME280;14429;48.346;16.338;2022-10-22T05:20:22;99624.75;;;17.75;49.60
26859;BME280;14429;48.346;16.338;2022-10-22T05:22:48;99628.00;;;17.79;49.36
26859;BME280;14429;48.346;16.338;2022-10-22T05:25:15;99633.66;;;17.85;49.37
26859;BME280;14429;48.346;16.338;2022-10-22T05:27:40;99623.16;;;17.82;49.31
26859;BME280;14429;48.346;16.338;2022-10-22T05:30:06;99637.03;;;17.87;49.30
26859;BME280;14429;48.346;16.338;2022-10-22T05:32:33;99635.34;;;17.86;49.29
26859;BME280;14429;48.346;16.338;2022-10-22T05:34:59;99635.81;;;17.81;49.24
26859;BME280;14429;48.346;16.338;2022-10-22T05:37:24;99638.56;;;17.72;49.66
26859;BME280;14429;48.346;16.338;2022-10-22T05:39:49;99653.34;;;17.68;49.62
26859;BME280;14429;48.346;16.338;2022-10-22T05:42:16;99662.69;;;17.74;49.59
26859;BME280;14429;48.346;16.338;2022-10-22T05:44:42;99666.31;;;17.82;49.33
26859;BME280;14429;48.346;16.338;2022-10-22T05:47:07;99690.44;;;17.83;49.37
26859;BME280;14429;48.346;16.338;2022-10-22T05:49:32;99683.44;;;17.73;49.47
26859;BME280;14429;48.346;16.338;2022-10-22T05:51:58;99678.03;;;17.73;49.64
26859;BME280;14429;48.346;16.338;2022-10-22T05:54:23;99676.38;;;17.63;49.73
26859;BME280;14429;48.346;16.338;2022-10-22T05:56:49;99660.75;;;17.66;49.63
26859;BME280;14429;48.346;16.338;2022-10-22T05:59:16;99658.81;;;17.59;50.05
26859;BME280;14429;48.346;16.338;2022-10-22T06:01:41;99646.53;;;17.64;49.90
26859;BME280;14429;48.346;16.338;2022-10-22T06:04:10;99649.34;;;17.46;46.84
26859;BME280;14429;48.346;16.338;2022-10-22T06:06:37;99657.31;;;17.02;47.48
26859;BME280;14429;48.346;16.338;2022-10-22T06:09:06;99675.09;;;17.31;50.50
26859;BME280;14429;48.346;16.338;2022-10-22T06:11:32;99676.41;;;17.53;50.14
26859;BME280;14429;48.346;16.338;2022-10-22T06:13:58;99677.22;;;17.63;49.78
26859;BME280;14429;48.346;16.338;2022-10-22T06:16:27;99684.56;;;17.71;49.60
26859;BME280;14429;48.346;16.338;2022-10-22T06:18:53;99680.03;;;17.71;49.68
26859;BME280;14429;48.346;16.338;2022-10-22T06:21:18;99686.59;;;17.69;49.62
26859;BME280;14429;48.346;16.338;2022-10-22T06:23:44;99701.59;;;17.71;49.60
26859;BME280;14429;48.346;16.338;2022-10-22T06:26:10;99706.41;;;17.77;49.54
26859;BME280;14429;48.346;16.338;2022-10-22T06:28:36;99716.91;;;17.80;49.33
26859;BME280;14429;48.346;16.338;2022-10-22T06:31:02;99719.91;;;17.77;49.49
26859;BME280;14429;48.346;16.338;2022-10-22T06:33:31;99712.09;;;17.74;49.47
26859;BME280;14429;48.346;16.338;2022-10-22T06:36:03;99705.31;;;17.70;49.51
26859;BME280;14429;48.346;16.338;2022-10-22T06:38:29;99708.56;;;17.74;49.43
26859;BME280;14429;48.346;16.338;2022-10-22T06:40:54;99723.19;;;17.71;49.57
26859;BME280;14429;48.346;16.338;2022-10-22T06:43:20;99731.38;;;17.79;49.31
26859;BME280;14429;48.346;16.338;2022-10-22T06:45:45;99722.16;;;17.46;49.01
26859;BME280;14429;48.346;16.338;2022-10-22T06:48:10;99725.38;;;17.58;49.80
26859;BME280;14429;48.346;16.338;2022-10-22T06:50:37;99735.28;;;17.13;50.78
26859;BME280;14429;48.346;16.338;2022-10-22T06:53:03;99734.94;;;17.44;50.32
26859;BME280;14429;48.346;16.338;2022-10-22T06:55:28;99742.00;;;17.54;50.05
26859;BME280;14429;48.346;16.338;2022-10-22T06:57:53;99753.56;;;17.73;49.58
26859;BME280;14429;48.346;16.338;2022-10-22T07:00:19;99761.34;;;17.76;49.51
26859;BME280;14429;48.346;16.338;2022-10-22T07:02:49;99755.53;;;17.81;49.27
26859;BME280;14429;48.346;16.338;2022-10-22T07:05:15;99742.47;;;17.76;49.47
26859;BME280;14429;48.346;16.338;2022-10-22T07:07:41;99752.28;;;17.32;46.91
26859;BME280;14429;48.346;16.338;2022-10-22T07:10:07;99749.09;;;17.55;49.94
26859;BME280;14429;48.346;16.338;2022-10-22T07:12:33;99763.81;;;17.70;49.51
26859;BME280;14429;48.346;16.338;2022-10-22T07:14:58;99795.84;;;17.82;49.46
26859;BME280;14429;48.346;16.338;2022-10-22T07:17:24;99807.91;;;17.78;49.42
26859;BME280;14429;48.346;16.338;2022-10-22T07:19:49;99798.13;;;17.77;49.36
26859;BME280;14429;48.346;16.338;2022-10-22T07:22:14;99789.50;;;17.74;49.50
26859;BME280;14429;48.346;16.338;2022-10-22T07:24:41;99798.13;;;17.77;49.50
26859;BME280;14429;48.346;16.338;2022-10-22T07:27:07;99820.41;;;17.79;49.44
26859;BME280;14429;48.346;16.338;2022-10-22T07:29:32;99832.31;;;17.86;49.21
26859;BME280;14429;48.346;16.338;2022-10-22T07:31:57;99845.34;;;17.54;49.14
26859;BME280;14429;48.346;16.338;2022-10-22T07:34:23;99847.59;;;17.50;49.31
26859;BME280;14429;48.346;16.338;2022-10-22T07:36:48;99844.78;;;17.42;50.10
26859;BME280;14429;48.346;16.338;2022-10-22T07:39:14;99849.56;;;17.66;49.90
26859;BME280;14429;48.346;16.338;2022-10-22T07:41:40;99841.88;;;17.71;49.57
26859;BME280;14429;48.346;16.338;2022-10-22T07:44:06;99839.91;;;17.73;49.61
26859;BME280;14429;48.346;16.338;2022-10-22T07:46:31;99853.22;;;17.75;49.54
26859;BME280;14429;48.346;16.338;2022-10-22T07:48:57;99857.38;;;17.69;49.61
26859;BME280;14429;48.346;16.338;2022-10-22T07:51:22;99863.47;;;17.71;49.63
26859;BME280;14429;48.346;16.338;2022-10-22T07:53:47;99864.88;;;17.75;49.57
26859;BME280;14429;48.346;16.338;2022-10-22T07:56:13;99868.56;;;17.74;49.56
26859;BME280;14429;48.346;16.338;2022-10-22T07:58:40;99859.47;;;17.75;49.62
26859;BME280;14429;48.346;16.338;2022-10-22T08:01:05;99868.28;;;17.77;49.46
26859;BME280;14429;48.346;16.338;2022-10-22T08:03:31;99871.09;;;17.76;49.58
26859;BME280;14429;48.346;16.338;2022-10-22T08:05:57;99870.97;;;17.77;49.45
26859;BME280;14429;48.346;16.338;2022-10-22T08:08:24;99850.00;;;17.53;50.08
26859;BME280;14429;48.346;16.338;2022-10-22T08:10:51;99838.63;;;17.68;49.70
26859;BME280;14429;48.346;16.338;2022-10-22T08:13:16;99850.38;;;17.76;49.57
26859;BME280;14429;48.346;16.338;2022-10-22T08:15:43;99845.97;;;17.75;49.51
26859;BME280;14429;48.346;16.338;2022-10-22T08:18:09;99853.56;;;17.53;50.17
26859;BME280;14429;48.346;16.338;2022-10-22T08:20:34;99853.16;;;17.48;49.76
26859;BME280;14429;48.346;16.338;2022-10-22T08:23:00;99842.75;;;17.62;49.96
26859;BME280;14429;48.346;16.338;2022-10-22T08:25:26;99856.53;;;17.59;49.87
26859;BME280;14429;48.346;16.338;2022-10-22T08:27:52;99853.38;;;17.64;49.93
26859;BME280;14429;48.346;16.338;2022-10-22T08:30:17;99858.06;;;17.71;49.64
26859;BME280;14429;48.346;16.338;2022-10-22T08:32:44;99858.41;;;17.12;50.08
26859;BME280;14429;48.346;16.338;2022-10-22T08:35:10;99852.28;;;17.01;49.98
26859;BME280;14429;48.346;16.338;2022-10-22T08:37:35;99847.47;;;17.42;50.81
26859;BME280;14429;48.346;16.338;2022-10-22T08:40:01;99847.63;;;17.12;51.27
26859;BME280;14429;48.346;16.338;2022-10-22T08:42:49;99847.47;;;17.51;50.32
26859;BME280;14429;48.346;16.338;2022-10-22T08:45:23;99838.09;;;17.55;50.19
26859;BME280;14429;48.346;16.338;2022-10-22T08:48:06;99842.47;;;17.56;50.29
26859;BME280;14429;48.346;16.338;2022-10-22T08:50:37;99841.63;;;17.55;50.18
26859;BME280;14429;48.346;16.338;2022-10-22T08:53:06;99846.19;;;17.46;50.44
26859;BME280;14429;48.346;16.338;2022-10-22T08:55:32;99837.94;;;17.56;50.14
26859;BME280;14429;48.346;16.338;2022-10-22T08:58:03;99843.91;;;17.04;51.48
26859;BME280;14429;48.346;16.338;2022-10-22T09:00:35;99841.94;;;16.97;51.96
26859;BME280;14429;48.346;16.338;2022-10-22T09:03:11;99858.94;;;16.97;52.13
26859;BME280;14429;48.346;16.338;2022-10-22T09:05:46;99849.59;;;17.38;50.88
26859;BME280;14429;48.346;16.338;2022-10-22T09:08:16;99842.69;;;17.17;51.15
26859;BME280;14429;48.346;16.338;2022-10-22T09:10:45;99840.81;;;16.99;52.83
26859;BME280;14429;48.346;16.338;2022-10-22T09:13:15;99839.38;;;16.76;53.34
26859;BME280;14429;48.346;16.338;2022-10-22T09:15:42;99838.81;;;17.01;52.12
26859;BME280;14429;48.346;16.338;2022-10-22T09:18:20;99831.16;;;17.34;51.14
26859;BME280;14429;48.346;16.338;2022-10-22T09:20:49;99828.47;;;17.34;50.88
26859;BME280;14429;48.346;16.338;2022-10-22T09:23:25;99823.03;;;17.53;50.58
26859;BME280;14429;48.346;16.338;2022-10-22T09:25:55;99828.31;;;17.45;50.83
26859;BME280;14429;48.346;16.338;2022-10-22T09:28:21;99829.44;;;17.52;50.66
26859;BME280;14429;48.346;16.338;2022-10-22T09:30:47;99824.31;;;17.58;50.46
26859;BME280;14429;48.346;16.338;2022-10-22T09:33:16;99825.50;;;17.37;50.96
26859;BME280;14429;48.346;16.338;2022-10-22T09:35:47;99832.13;;;17.42;50.83
26859;BME280;14429;48.346;16.338;2022-10-22T09:38:14;99835.25;;;17.00;53.22
26859;BME280;14429;48.346;16.338;2022-10-22T09:40:44;99832.28;;;17.41;51.17
26859;BME280;14429;48.346;16.338;2022-10-22T09:43:12;99821.63;;;17.49;50.76
26859;BME280;14429;48.346;16.338;2022-10-22T09:45:38;99826.50;;;17.36;51.37
26859;BME280;14429;48.346;16.338;2022-10-22T09:48:11;99823.75;;;17.45;50.87
26859;BME280;14429;48.346;16.338;2022-10-22T09:50:42;99823.75;;;17.45;50.89
26859;BME280;14429;48.346;16.338;2022-10-22T09:53:12;99839.69;;;17.20;52.05
26859;BME280;14429;48.346;16.338;2022-10-22T09:55:38;99838.25;;;17.35;51.42
26859;BME280;14429;48.346;16.338;2022-10-22T09:58:04;99851.59;;;17.27;52.05
26859;BME280;14429;48.346;16.338;2022-10-22T10:00:29;99851.28;;;16.65;55.85
26859;BME280;14429;48.346;16.338;2022-10-22T10:02:56;99847.72;;;16.73;53.79
26859;BME280;14429;48.346;16.338;2022-10-22T10:05:27;99851.00;;;16.96;52.66
26859;BME280;14429;48.346;16.338;2022-10-22T10:07:55;99846.34;;;17.16;52.18
26859;BME280;14429;48.346;16.338;2022-10-22T10:10:27;99845.91;;;17.30;51.60
26859;BME280;14429;48.346;16.338;2022-10-22T10:13:02;99851.31;;;17.30;51.83
26859;BME280;14429;48.346;16.338;2022-10-22T10:15:37;99851.59;;;17.27;51.80
26859;BME280;14429;48.346;16.338;2022-10-22T10:18:11;99849.03;;;17.44;51.04
26859;BME280;14429;48.346;16.338;2022-10-22T10:20:45;99845.22;;;17.37;51.68
26859;BME280;14429;48.346;16.338;2022-10-22T10:23:20;99852.72;;;17.34;51.69
26859;BME280;14429;48.346;16.338;2022-10-22T10:25:52;99857.56;;;17.21;54.59
26859;BME280;14429;48.346;16.338;2022-10-22T10:28:27;99858.09;;;16.97;54.33
26859;BME280;14429;48.346;16.338;2022-10-22T10:31:01;99858.00;;;17.07;53.82
26859;BME280;14429;48.346;16.338;2022-10-22T10:33:33;99853.16;;;17.11;52.51
26859;BME280;14429;48.346;16.338;2022-10-22T10:36:07;99850.63;;;17.28;51.89
26859;BME280;14429;48.346;16.338;2022-10-22T10:38:41;99844.22;;;17.29;52.34
26859;BME280;14429;48.346;16.338;2022-10-22T10:41:18;99853.44;;;17.36;51.59
26859;BME280;14429;48.346;16.338;2022-10-22T10:43:59;99843.59;;;17.53;51.09
26859;BME280;14429;48.346;16.338;2022-10-22T10:46:34;99838.81;;;17.48;51.04
26859;BME280;14429;48.346;16.338;2022-10-22T10:49:08;99838.56;;;17.32;53.56
26859;BME280;14429;48.346;16.338;2022-10-22T10:51:39;99844.50;;;17.26;52.44
26859;BME280;14429;48.346;16.338;2022-10-22T10:54:17;99857.97;;;17.45;51.52
26859;BME280;14429;48.346;16.338;2022-10-22T10:56:48;99846.19;;;17.46;51.96
26859;BME280;14429;48.346;16.338;2022-10-22T10:59:19;99847.31;;;17.53;51.19
26859;BME280;14429;48.346;16.338;2022-10-22T11:02:08;99843.34;;;16.73;60.71
26859;BME280;14429;48.346;16.338;2022-10-22T11:05:03;99832.47;;;17.11;53.00
26859;BME280;14429;48.346;16.338;2022-10-22T11:07:37;99828.91;;;17.20;54.09
26859;BME280;14429;48.346;16.338;2022-10-22T11:10:11;99824.38;;;17.21;54.16
26859;BME280;14429;48.346;16.338;2022-10-22T11:12:40;99827.44;;;16.79;60.00
26859;BME280;14429;48.346;16.338;2022-10-22T11:15:23;99825.50;;;17.09;53.67
26859;BME280;14429;48.346;16.338;2022-10-22T11:17:51;99828.34;;;17.26;52.78
26859;BME280;14429;48.346;16.338;2022-10-22T11:20:21;99825.47;;;17.46;51.56
26859;BME280;14429;48.346;16.338;2022-10-22T11:22:54;99820.66;;;16.94;59.84
26859;BME280;14429;48.346;16.338;2022-10-22T11:25:24;99806.50;;;17.20;52.97
26859;BME280;14429;48.346;16.338;2022-10-22T11:27:56;99814.31;;;17.13;56.96
26859;BME280;14429;48.346;16.338;2022-10-22T11:30:28;99808.47;;;16.90;61.65
26859;BME280;14429;48.346;16.338;2022-10-22T11:32:58;99807.03;;;16.67;61.19
26859;BME280;14429;48.346;16.338;2022-10-22T11:35:26;99787.50;;;16.84;56.21
26859;BME280;14429;48.346;16.338;2022-10-22T11:37:54;99792.72;;;16.67;61.00
26859;BME280;14429;48.346;16.338;2022-10-22T11:40:29;99795.44;;;16.95;54.91
26859;BME280;14429;48.346;16.338;2022-10-22T11:42:57;99800.53;;;17.16;53.28
26859;BME280;14429;48.346;16.338;2022-10-22T11:45:28;99810.16;;;17.00;58.72
26859;BME280;14429;48.346;16.338;2022-10-22T11:47:58;99814.72;;;17.18;53.62
26859;BME280;14429;48.346;16.338;2022-10-22T11:50:45;99820.97;;;17.28;53.02
26859;BME280;14429;48.346;16.338;2022-10-22T11:53:17;99811.28;;;17.35;52.40
26859;BME280;14429;48.346;16.338;2022-10-22T11:55:45;99821.13;;;17.08;61.72
26859;BME280;14429;48.346;16.338;2022-10-22T11:58:26;99819.81;;;16.93;57.91
26859;BME280;14429;48.346;16.338;2022-10-22T12:00:53;99827.31;;;16.80;63.03
26859;BME280;14429;48.346;16.338;2022-10-22T12:03:24;99818.09;;;16.83;59.72
26859;BME280;14429;48.346;16.338;2022-10-22T12:06:07;99816.97;;;16.95;55.38
26859;BME280;14429;48.346;16.338;2022-10-22T12:08:41;99822.19;;;17.05;55.92
26859;BME280;14429;48.346;16.338;2022-10-22T12:11:16;99815.59;;;17.09;56.37
26859;BME280;14429;48.346;16.338;2022-10-22T12:16:43;99808.50;;;17.18;53.86
26859;BME280;14429;48.346;16.338;2022-10-22T12:19:13;99802.66;;;17.22;53.42
26859;BME280;14429;48.346;16.338;2022-10-22T12:21:41;99802.78;;;17.30;53.96
26859;BME280;14429;48.346;16.338;2022-10-22T12:24:12;99806.81;;;17.17;60.87
26859;BME280;14429;48.346;16.338;2022-10-22T12:26:39;99805.75;;;16.90;63.03
26859;BME280;14429;48.346;16.338;2022-10-22T12:29:09;99808.75;;;16.96;58.08
26859;BME280;14429;48.346;16.338;2022-10-22T12:31:37;99801.94;;;17.20;55.92
26859;BME280;14429;48.346;16.338;2022-10-22T12:34:03;99816.41;;;16.91;63.04
26859;BME280;14429;48.346;16.338;2022-10-22T12:36:31;99812.59;;;17.12;55.88
26859;BME280;14429;48.346;16.338;2022-10-22T12:38:58;99816.97;;;16.95;63.50
26859;BME280;14429;48.346;16.338;2022-10-22T12:41:29;99812.88;;;16.91;60.25
26859;BME280;14429;48.346;16.338;2022-10-22T12:43:58;99808.19;;;16.93;58.41
26859;BME280;14429;48.346;16.338;2022-10-22T12:46:25;99806.22;;;16.95;59.55
26859;BME280;14429;48.346;16.338;2022-10-22T12:48:51;99797.69;;;17.08;55.43
26859;BME280;14429;48.346;16.338;2022-10-22T12:51:18;99789.34;;;17.21;54.25
26859;BME280;14429;48.346;16.338;2022-10-22T12:53:46;99799.69;;;17.25;54.71
26859;BME280;14429;48.346;16.338;2022-10-22T12:56:13;99794.28;;;17.25;55.58
26859;BME280;14429;48.346;16.338;2022-10-22T12:58:41;99803.78;;;17.29;55.66
26859;BME280;14429;48.346;16.338;2022-10-22T13:01:10;99813.28;;;17.33;54.24